Hector, New York
Current Conditions -  °F | °C
As of 9:24 AM on Monday 26 Jan 2015 (Local Time) from KPEO Reporting Station
Light Snow Light Snow  
Wind Chill:   Ceiling: 2100
Heat Index: 12°   Visibility: 1mi
Dew Point:   Wind: 5mph
Humidity: 77%   Direction: 30°NNE
Pressure: 29.94"   Gusts: NA
Location:  42.5°N, 76.87°W
Report Text: KPEO 261424Z AUTO 03004KT 1SM -SN BKN021 OVC029 M11/M14 A2994 RMK AO2 P0000 T11111144 RVRNO
Loading
Personal Weather Stations






























Interactive Weather Map New forecast layout! Learn more

10-Day Weather Forecast

Advertisements
Track Severe Weather on mobile